Strona główna
METAR-TAF:

METAR-TAF

Lotnisko :

Port lotniczy Wołgograd

Wołgograd, Rosja

Szerokość geograficzna: 48-47N, Długość geograficzna: 044-22E, wysokość: 145 m

Aktualna obserwacja pogody

Raport powstał 17 minut temu, godzina 09:30 UTC
Wiatr 10 kt od północny zachód
Temperatura 6°C
Wilgotność 45%
Ciśnienie 1013 hPa
Widzialność 10 km lub więcej
Brak chmur poniżej 1500 m i brak chmur cumulonimbus

METAR: URWW 290930Z 32005MPS CAVOK 06/M05 Q1013 R24/010070 NOSIG

czas: 13:47 (09:47 UTC)

Prognoza

Raport powstał 1 godzina i 48 minut temu, godzina 07:59 UTC
Prognoza ważna od 29 godzina 09 UTC do 29 godzina 18 UTC
Wiatr 10 kt od północny zachód w porywach dochodzący do 19 kt
Widzialność 10 km lub więcej
Przerywane chmury na wysokości 1600 ft
Przejściowo
od 29 godzina 09 UTC do 29 godzina 15 UTC
Wiatr 12 kt od zachodnio-północny zachód w porywach dochodzący do 23 kt

TAF: URWW 290759Z 2909/2918 32005G10MPS 9999 BKN016 TEMPO 2909/2915 30006G12MPS

Obserwacja i prognoza pogody dla ponad 4000 lotnisk (raport METAR i TAF).

Dostępne stacje oznaczono żółtymi i czerwonymi punktami na mapie.

Najedź kursorem aby zobaczyć nazwę stacji.

Kliknij aby zobaczyć obserwacje i prognozy pogody.

Aby zmienić mapę: kliknij na zielony przycisk z czarnym krzyżykiem, aby powiększyć; na zielony przycisk z myślnikiem, aby pomniejszyć; na zielone strzałki, aby przejść do map sąsiednich.


METAR-TAF: